Time;durP1;ratioP1;P1;durP2;ratioP2;P2;SDS_P1;SDS_P2;PMS_P1;PMS_P2;Temp;Humidity;BMP_temperature;BMP_pressure;BME280_temperature;BME280_humidity;BME280_pressure;Samples;Min_cycle;Max_cycle;Signal;HPM_P1;HPM_P2
2022/06/29 00:01:21;;;;;;;;;;;16.90;99.90;;;;;;4956177;29;19934;-79
2022/06/29 00:03:47;;;;;;;;;;;16.90;99.90;;;;;;4955991;29;19983;-78
2022/06/29 00:06:13;;;;;;;;;;;16.80;99.90;;;;;;4955572;29;19918;-79
2022/06/29 00:08:38;;;;;;;;;;;16.70;99.90;;;;;;4955745;29;19911;-79
2022/06/29 00:11:04;;;;;;;;;;;16.60;99.90;;;;;;4955972;29;19910;-79
2022/06/29 00:13:29;;;;;;;;;;;16.30;99.90;;;;;;4955860;29;19957;-78
2022/06/29 00:15:55;;;;;;;;;;;16.20;99.90;;;;;;4955434;29;19910;-79
2022/06/29 00:18:20;;;;;;;;;;;16.00;99.90;;;;;;4955906;29;20406;-78
2022/06/29 00:20:46;;;;;;;;;;;16.00;99.90;;;;;;4955529;29;19914;-80
2022/06/29 00:23:11;;;;;;;;;;;15.90;99.90;;;;;;4955691;29;19911;-79
2022/06/29 00:25:37;;;;;;;;;;;15.90;99.90;;;;;;4955257;29;19911;-78
2022/06/29 00:28:03;;;;;;;;;;;15.90;99.90;;;;;;4955569;29;20067;-79
2022/06/29 00:30:28;;;;;;;;;;;16.10;99.90;;;;;;4955670;28;19934;-79
2022/06/29 00:32:54;;;;;;;;;;;16.10;99.90;;;;;;4954407;28;19910;-79
2022/06/29 00:35:20;;;;;;;;;;;16.10;99.90;;;;;;4955366;28;19964;-78
2022/06/29 00:37:45;;;;;;;;;;;16.20;99.90;;;;;;4955528;29;19911;-79
2022/06/29 00:40:11;;;;;;;;;;;16.20;99.90;;;;;;4955486;29;19910;-79
2022/06/29 00:42:37;;;;;;;;;;;16.20;99.90;;;;;;4955390;29;19920;-78
2022/06/29 00:45:03;;;;;;;;;;;16.20;99.90;;;;;;4954868;28;19910;-78
2022/06/29 00:47:29;;;;;;;;;;;16.20;99.90;;;;;;4955438;29;19915;-79
2022/06/29 00:49:55;;;;;;;;;;;16.20;99.90;;;;;;4955087;29;20024;-79
2022/06/29 00:52:22;;;;;;;;;;;16.20;99.90;;;;;;4955383;29;19910;-79
2022/06/29 00:55:00;;;;;;;;;;;16.10;99.90;;;;;;4937648;28;20295;-79
2022/06/29 00:57:28;;;;;;;;;;;16.10;99.90;;;;;;4955357;29;19910;-78
2022/06/29 00:59:55;;;;;;;;;;;16.00;99.90;;;;;;4955178;29;19918;-80
2022/06/29 01:02:25;;;;;;;;;;;16.00;99.90;;;;;;4955159;29;20093;-79
2022/06/29 01:04:51;;;;;;;;;;;15.90;99.90;;;;;;4954889;28;19910;-80
2022/06/29 01:07:18;;;;;;;;;;;16.00;99.90;;;;;;4954994;28;19937;-79
2022/06/29 01:09:44;;;;;;;;;;;16.00;99.90;;;;;;4955110;28;19911;-78
2022/06/29 01:12:10;;;;;;;;;;;16.00;99.90;;;;;;4955086;28;19910;-79
2022/06/29 01:14:36;;;;;;;;;;;16.00;99.90;;;;;;4955079;29;19954;-79
2022/06/29 01:17:02;;;;;;;;;;;16.00;99.90;;;;;;4974108;28;19973;-79
2022/06/29 01:19:28;;;;;;;;;;;16.00;99.90;;;;;;4974368;28;20019;-80
2022/06/29 01:21:55;;;;;;;;;;;15.90;99.90;;;;;;4974249;28;20367;-77
2022/06/29 01:24:21;;;;;;;;;;;16.00;99.90;;;;;;4974285;28;20282;-80
2022/06/29 01:26:47;;;;;;;;;;;16.10;99.90;;;;;;4973649;28;19918;-80
2022/06/29 01:29:12;;;;;;;;;;;16.00;99.90;;;;;;4974225;28;19933;-78
2022/06/29 01:31:38;;;;;;;;;;;16.00;99.90;;;;;;4974279;28;19917;-79
2022/06/29 01:34:03;;;;;;;;;;;16.00;99.90;;;;;;4974177;28;19910;-78
2022/06/29 01:36:29;;;;;;;;;;;16.10;99.90;;;;;;4973764;28;20379;-78
2022/06/29 01:38:54;;;;;;;;;;;16.10;99.90;;;;;;4974194;28;19914;-79
2022/06/29 01:41:20;;;;;;;;;;;16.10;99.90;;;;;;4974096;28;19910;-79
2022/06/29 01:43:45;;;;;;;;;;;16.20;99.90;;;;;;4974918;28;20363;-79
2022/06/29 01:46:11;;;;;;;;;;;16.20;99.90;;;;;;4977327;28;19921;-80
2022/06/29 01:48:37;;;;;;;;;;;16.10;99.90;;;;;;4977770;28;20001;-79
2022/06/29 01:51:02;;;;;;;;;;;16.20;99.90;;;;;;4977575;28;20391;-78
2022/06/29 01:53:28;;;;;;;;;;;16.30;99.90;;;;;;4977775;28;19997;-79
2022/06/29 01:55:54;;;;;;;;;;;16.30;99.90;;;;;;4977307;28;19961;-80
2022/06/29 01:58:20;;;;;;;;;;;16.20;99.90;;;;;;4977657;28;19910;-78
2022/06/29 02:00:46;;;;;;;;;;;16.30;99.90;;;;;;4977681;28;20441;-80
2022/06/29 02:03:11;;;;;;;;;;;16.30;99.90;;;;;;4977560;28;19916;-78
2022/06/29 02:05:37;;;;;;;;;;;16.30;99.90;;;;;;4977156;28;20413;-79
2022/06/29 02:08:03;;;;;;;;;;;16.20;99.90;;;;;;4977379;28;19910;-79
2022/06/29 02:10:29;;;;;;;;;;;16.20;99.90;;;;;;4977406;28;19911;-80
2022/06/29 02:12:55;;;;;;;;;;;16.20;99.90;;;;;;4977445;28;19911;-79
2022/06/29 02:15:21;;;;;;;;;;;16.30;99.90;;;;;;4977056;28;19917;-80
2022/06/29 02:17:47;;;;;;;;;;;16.30;99.90;;;;;;4977324;28;19918;-79
2022/06/29 02:20:12;;;;;;;;;;;16.30;99.90;;;;;;4977089;28;19910;-80
2022/06/29 02:22:39;;;;;;;;;;;16.40;99.90;;;;;;4977226;28;19910;-79
2022/06/29 02:25:04;;;;;;;;;;;16.30;99.90;;;;;;4976924;28;19910;-79
2022/06/29 02:27:30;;;;;;;;;;;16.40;99.90;;;;;;4977017;28;20004;-78
2022/06/29 02:29:56;;;;;;;;;;;16.30;99.90;;;;;;4977242;28;20278;-79
2022/06/29 02:35:05;;;;;;;;;;;16.40;99.90;;;;;;4976538;28;19967;-79
2022/06/29 02:37:31;;;;;;;;;;;16.40;99.90;;;;;;4976928;28;19914;-80
2022/06/29 02:39:56;;;;;;;;;;;16.50;99.90;;;;;;4977057;28;19997;-79
2022/06/29 02:42:22;;;;;;;;;;;16.50;99.90;;;;;;4976791;28;20005;-80
2022/06/29 02:44:48;;;;;;;;;;;16.50;99.90;;;;;;4959213;28;20293;-80
2022/06/29 02:47:14;;;;;;;;;;;16.50;99.90;;;;;;4976163;28;19918;-78
2022/06/29 02:49:40;;;;;;;;;;;16.50;99.90;;;;;;4976497;28;19941;-80
2022/06/29 02:52:05;;;;;;;;;;;16.40;99.90;;;;;;4975414;28;19922;-78
2022/06/29 02:54:31;;;;;;;;;;;16.50;99.90;;;;;;4976664;28;20330;-78
2022/06/29 02:56:57;;;;;;;;;;;16.40;99.90;;;;;;4975283;28;19915;-79
2022/06/29 02:59:22;;;;;;;;;;;16.50;99.90;;;;;;4976575;28;19910;-79
2022/06/29 03:01:48;;;;;;;;;;;16.40;99.90;;;;;;4976538;28;19910;-78
2022/06/29 03:04:14;;;;;;;;;;;16.40;99.90;;;;;;4976504;28;19945;-78
2022/06/29 03:06:39;;;;;;;;;;;16.40;99.90;;;;;;4975910;28;19922;-80
2022/06/29 03:09:05;;;;;;;;;;;16.50;99.90;;;;;;4976226;28;19910;-80
2022/06/29 03:11:31;;;;;;;;;;;16.50;99.90;;;;;;4976273;28;19912;-79
2022/06/29 03:13:57;;;;;;;;;;;16.50;99.90;;;;;;4976412;28;19921;-79
2022/06/29 03:16:23;;;;;;;;;;;16.60;99.90;;;;;;4975852;28;19910;-78
2022/06/29 03:18:49;;;;;;;;;;;16.60;99.90;;;;;;4976291;28;20413;-80
2022/06/29 03:21:15;;;;;;;;;;;16.60;99.90;;;;;;4975798;28;20371;-78
2022/06/29 03:23:41;;;;;;;;;;;16.60;99.90;;;;;;4976088;28;20264;-79
2022/06/29 03:26:06;;;;;;;;;;;16.60;99.90;;;;;;4975645;28;19937;-80
2022/06/29 03:28:32;;;;;;;;;;;16.60;99.90;;;;;;4976013;28;19917;-79
2022/06/29 03:30:57;;;;;;;;;;;16.80;99.90;;;;;;4975999;28;19960;-79
2022/06/29 03:33:23;;;;;;;;;;;16.70;99.90;;;;;;4975964;28;20000;-80
2022/06/29 03:35:48;;;;;;;;;;;16.70;99.90;;;;;;4975574;28;19910;-79
2022/06/29 03:38:14;;;;;;;;;;;16.70;99.90;;;;;;4975864;28;20359;-79
2022/06/29 03:40:40;;;;;;;;;;;16.60;99.90;;;;;;4975752;28;19910;-78
2022/06/29 03:43:05;;;;;;;;;;;16.60;99.90;;;;;;4975795;28;20314;-80
2022/06/29 03:45:31;;;;;;;;;;;16.60;99.90;;;;;;4975396;28;19945;-79
2022/06/29 03:47:56;;;;;;;;;;;16.60;99.90;;;;;;4975679;28;20017;-80
2022/06/29 03:50:22;;;;;;;;;;;16.70;99.90;;;;;;4975434;28;19972;-79
2022/06/29 03:52:49;;;;;;;;;;;16.70;99.90;;;;;;4975494;28;19961;-80
2022/06/29 03:55:14;;;;;;;;;;;16.70;99.90;;;;;;4975311;28;19916;-79
2022/06/29 03:57:40;;;;;;;;;;;16.70;99.90;;;;;;4975405;28;19997;-79
2022/06/29 04:00:06;;;;;;;;;;;16.90;99.90;;;;;;4975455;28;19911;-79
2022/06/29 04:02:31;;;;;;;;;;;16.60;99.90;;;;;;4975400;28;19910;-79
2022/06/29 04:04:57;;;;;;;;;;;16.00;99.90;;;;;;4975366;28;19968;-79
2022/06/29 04:07:23;;;;;;;;;;;15.70;99.90;;;;;;4974604;28;20001;-79
2022/06/29 04:09:48;;;;;;;;;;;15.60;99.90;;;;;;4973967;28;19989;-79
2022/06/29 04:12:14;;;;;;;;;;;15.40;99.90;;;;;;4975291;28;20391;-78
2022/06/29 04:14:40;;;;;;;;;;;15.20;99.90;;;;;;4975106;28;19910;-80
2022/06/29 04:17:05;;;;;;;;;;;15.30;99.90;;;;;;4957359;28;19957;-79
2022/06/29 04:19:31;;;;;;;;;;;15.10;99.90;;;;;;4975047;28;19918;-79
2022/06/29 04:21:57;;;;;;;;;;;15.10;99.90;;;;;;4975005;28;19996;-80
2022/06/29 04:24:23;;;;;;;;;;;15.10;99.90;;;;;;4975062;28;19918;-80
2022/06/29 04:26:48;;;;;;;;;;;15.00;99.90;;;;;;4974437;28;19914;-79
2022/06/29 04:29:14;;;;;;;;;;;15.00;99.90;;;;;;4975028;28;20276;-78
2022/06/29 04:31:40;;;;;;;;;;;14.90;99.90;;;;;;4974722;28;20008;-78
2022/06/29 04:34:06;;;;;;;;;;;15.00;99.90;;;;;;4974919;28;19956;-79
2022/06/29 04:36:32;;;;;;;;;;;15.10;99.90;;;;;;4965101;28;19916;-78
2022/06/29 04:38:57;;;;;;;;;;;15.10;99.90;;;;;;4955460;28;19945;-79
2022/06/29 04:41:23;;;;;;;;;;;15.30;99.90;;;;;;4955595;28;19946;-78
2022/06/29 04:43:49;;;;;;;;;;;15.40;99.90;;;;;;4955302;28;20299;-79
2022/06/29 04:46:22;;;;;;;;;;;15.50;99.90;;;;;;4955303;28;19921;-79
2022/06/29 04:48:51;;;;;;;;;;;15.40;99.90;;;;;;4953951;29;20387;-79
2022/06/29 04:51:17;;;;;;;;;;;15.50;99.90;;;;;;4955187;29;19933;-79
2022/06/29 04:53:44;;;;;;;;;;;15.60;99.90;;;;;;4955319;29;19911;-79
2022/06/29 04:56:10;;;;;;;;;;;15.60;99.90;;;;;;4954712;28;19917;-78
2022/06/29 04:58:35;;;;;;;;;;;15.80;99.90;;;;;;4955255;29;19910;-79
2022/06/29 05:01:01;;;;;;;;;;;15.70;99.90;;;;;;4955168;29;20422;-79
2022/06/29 05:03:27;;;;;;;;;;;15.90;99.90;;;;;;4955262;29;19915;-79
2022/06/29 05:05:52;;;;;;;;;;;16.10;99.90;;;;;;4954807;28;19937;-78
2022/06/29 05:08:18;;;;;;;;;;;16.30;99.90;;;;;;4937782;29;19910;-79
2022/06/29 05:10:43;;;;;;;;;;;16.50;99.90;;;;;;4937799;29;20045;-78
2022/06/29 05:13:09;;;;;;;;;;;16.50;99.90;;;;;;4955308;29;19918;-79
2022/06/29 05:15:35;;;;;;;;;;;16.50;99.90;;;;;;4954893;29;19915;-78
2022/06/29 05:18:01;;;;;;;;;;;16.60;99.90;;;;;;4955026;28;19997;-79
2022/06/29 05:20:27;;;;;;;;;;;16.30;99.90;;;;;;4958567;29;19950;-78
2022/06/29 05:22:52;;;;;;;;;;;16.10;99.90;;;;;;4959064;29;19910;-79
2022/06/29 05:25:18;;;;;;;;;;;15.90;99.90;;;;;;4959026;28;19962;-78
2022/06/29 05:27:43;;;;;;;;;;;16.10;99.90;;;;;;4958321;28;20383;-78
2022/06/29 05:30:09;;;;;;;;;;;16.20;99.90;;;;;;4941673;29;20334;-78
2022/06/29 05:32:35;;;;;;;;;;;16.30;99.90;;;;;;4959227;29;20014;-79
2022/06/29 05:35:01;;;;;;;;;;;16.40;99.90;;;;;;4958802;28;19946;-79
2022/06/29 05:37:27;;;;;;;;;;;16.50;99.90;;;;;;4958289;28;20398;-79
2022/06/29 05:39:52;;;;;;;;;;;16.30;99.90;;;;;;4958839;28;20291;-79
2022/06/29 05:42:18;;;;;;;;;;;16.20;99.90;;;;;;4958628;29;19918;-78
2022/06/29 05:44:44;;;;;;;;;;;16.30;99.90;;;;;;4958501;29;20291;-79
2022/06/29 05:47:09;;;;;;;;;;;16.30;99.90;;;;;;4970413;28;19914;-77
2022/06/29 05:49:35;;;;;;;;;;;16.40;99.90;;;;;;4978008;28;20017;-79
2022/06/29 05:52:02;;;;;;;;;;;16.30;99.90;;;;;;4977585;28;20397;-79
2022/06/29 05:54:28;;;;;;;;;;;16.20;99.90;;;;;;4977766;28;19918;-78
2022/06/29 05:56:54;;;;;;;;;;;16.40;99.90;;;;;;4977237;28;19910;-78
2022/06/29 05:59:19;;;;;;;;;;;16.50;99.90;;;;;;4977596;28;19976;-78
2022/06/29 06:01:45;;;;;;;;;;;16.80;99.90;;;;;;4977724;28;19916;-79
2022/06/29 06:04:10;;;;;;;;;;;17.20;99.90;;;;;;4977567;28;19910;-79
2022/06/29 06:06:36;;;;;;;;;;;17.10;99.90;;;;;;4977198;28;19918;-79
2022/06/29 06:09:01;;;;;;;;;;;17.30;99.90;;;;;;4977254;28;19910;-78
2022/06/29 06:11:27;;;;;;;;;;;17.30;99.90;;;;;;4977410;28;19918;-78
2022/06/29 06:13:52;;;;;;;;;;;17.10;99.90;;;;;;4977531;28;19980;-80
2022/06/29 06:16:18;;;;;;;;;;;16.90;99.90;;;;;;4977027;28;19917;-79
2022/06/29 06:18:44;;;;;;;;;;;16.90;99.90;;;;;;4977379;28;19910;-78
2022/06/29 06:21:09;;;;;;;;;;;17.20;99.90;;;;;;4977073;28;19911;-79
2022/06/29 06:23:35;;;;;;;;;;;17.00;99.90;;;;;;4977261;28;19922;-79
2022/06/29 06:26:00;;;;;;;;;;;17.10;99.90;;;;;;4977010;28;19918;-79
2022/06/29 06:28:26;;;;;;;;;;;17.10;99.90;;;;;;4977080;28;20292;-79
2022/06/29 06:30:51;;;;;;;;;;;17.00;99.90;;;;;;4975803;28;19910;-78
2022/06/29 06:33:17;;;;;;;;;;;17.10;99.90;;;;;;4976658;28;20359;-80
2022/06/29 06:35:43;;;;;;;;;;;17.20;99.90;;;;;;4977336;28;19911;-79
2022/06/29 06:38:09;;;;;;;;;;;17.30;99.90;;;;;;4976352;28;19917;-79
2022/06/29 06:43:18;;;;;;;;;;;17.80;99.90;;;;;;4976581;28;19957;-79
2022/06/29 06:45:44;;;;;;;;;;;18.00;99.90;;;;;;4976746;28;19914;-80
2022/06/29 06:48:10;;;;;;;;;;;17.70;99.90;;;;;;4976415;28;20318;-79
2022/06/29 06:50:37;;;;;;;;;;;17.70;99.90;;;;;;4976670;28;20340;-78
2022/06/29 06:53:02;;;;;;;;;;;18.00;99.90;;;;;;4976713;28;19916;-79
2022/06/29 06:55:29;;;;;;;;;;;18.00;99.90;;;;;;4976500;28;19953;-78
2022/06/29 06:57:54;;;;;;;;;;;17.90;99.90;;;;;;4976172;28;19910;-79
2022/06/29 07:00:20;;;;;;;;;;;17.50;99.90;;;;;;4976555;28;19917;-80
2022/06/29 07:02:46;;;;;;;;;;;17.50;99.90;;;;;;4976531;28;19911;-80
2022/06/29 07:05:16;;;;;;;;;;;17.40;99.90;;;;;;4975569;28;20319;-79
2022/06/29 07:07:42;;;;;;;;;;;17.70;99.90;;;;;;4975931;28;19914;-79
2022/06/29 07:10:07;;;;;;;;;;;18.30;99.90;;;;;;4976453;28;19973;-79
2022/06/29 07:12:33;;;;;;;;;;;18.60;99.90;;;;;;4976340;28;19914;-79
2022/06/29 07:14:59;;;;;;;;;;;19.00;99.90;;;;;;4976408;28;19917;-80
2022/06/29 07:17:24;;;;;;;;;;;19.10;99.90;;;;;;4975818;28;19910;-79
2022/06/29 07:19:50;;;;;;;;;;;19.20;99.90;;;;;;4976029;28;20374;-80
2022/06/29 07:22:15;;;;;;;;;;;19.30;99.90;;;;;;4976304;28;19960;-80
2022/06/29 07:24:45;;;;;;;;;;;19.50;99.90;;;;;;4976110;28;20390;-80
2022/06/29 07:27:10;;;;;;;;;;;19.50;99.90;;;;;;4975651;28;20283;-80
2022/06/29 07:29:36;;;;;;;;;;;19.20;99.90;;;;;;4976078;28;19917;-80
2022/06/29 07:32:02;;;;;;;;;;;18.80;99.90;;;;;;4975932;28;19910;-81
2022/06/29 07:34:28;;;;;;;;;;;18.70;99.90;;;;;;4975936;28;19914;-81
2022/06/29 07:36:53;;;;;;;;;;;18.40;99.90;;;;;;4975573;28;19910;-81
2022/06/29 07:39:19;;;;;;;;;;;18.60;99.90;;;;;;4975895;28;19917;-79
2022/06/29 07:41:45;;;;;;;;;;;18.60;99.90;;;;;;4975312;28;19910;-81
2022/06/29 07:44:11;;;;;;;;;;;18.70;99.90;;;;;;4975625;28;20434;-80
2022/06/29 07:46:37;;;;;;;;;;;18.60;99.90;;;;;;4975420;28;19914;-78
2022/06/29 07:49:02;;;;;;;;;;;19.40;99.90;;;;;;4975860;28;20322;-78
2022/06/29 07:51:28;;;;;;;;;;;22.40;99.90;;;;;;4975207;28;19984;-80
2022/06/29 07:53:54;;;;;;;;;;;25.70;99.90;;;;;;4975607;28;19970;-80
2022/06/29 07:56:19;;;;;;;;;;;24.00;99.90;;;;;;4975096;28;19910;-80
2022/06/29 07:58:45;;;;;;;;;;;22.30;99.90;;;;;;4975427;28;19910;-80
2022/06/29 08:01:11;;;;;;;;;;;21.80;99.90;;;;;;4975483;28;19961;-80
2022/06/29 08:03:36;;;;;;;;;;;23.00;99.90;;;;;;4975353;28;19911;-81
2022/06/29 08:06:05;;;;;;;;;;;23.30;99.90;;;;;;4975255;28;19914;-79
2022/06/29 08:08:31;;;;;;;;;;;24.30;99.90;;;;;;4957415;28;19914;-79
2022/06/29 08:10:56;;;;;;;;;;;23.50;99.90;;;;;;4975230;28;19910;-80
2022/06/29 08:13:22;;;;;;;;;;;23.70;99.90;;;;;;4975267;28;19910;-80
2022/06/29 08:15:48;;;;;;;;;;;23.60;99.90;;;;;;4975029;28;19921;-79
2022/06/29 08:18:14;;;;;;;;;;;22.90;99.90;;;;;;4974635;28;19914;-80
2022/06/29 08:20:40;;;;;;;;;;;23.20;99.90;;;;;;4974891;28;19918;-81
2022/06/29 08:23:06;;;;;;;;;;;25.10;99.90;;;;;;4975082;28;19917;-80
2022/06/29 08:25:32;;;;;;;;;;;25.70;93.70;;;;;;4974989;28;19910;-81
2022/06/29 08:28:00;;;;;;;;;;;25.70;92.10;;;;;;4974464;28;19918;-80
2022/06/29 08:30:25;;;;;;;;;;;25.40;94.40;;;;;;4974985;28;19961;-80
2022/06/29 08:32:51;;;;;;;;;;;26.30;91.40;;;;;;4974666;28;19953;-81
2022/06/29 08:35:17;;;;;;;;;;;26.80;90.60;;;;;;4974980;28;19914;-81
2022/06/29 08:37:43;;;;;;;;;;;26.50;88.60;;;;;;4974388;28;20339;-80
2022/06/29 08:40:10;;;;;;;;;;;26.20;90.20;;;;;;4974802;28;19988;-79
2022/06/29 08:42:38;;;;;;;;;;;26.30;90.00;;;;;;4974802;28;19933;-80
2022/06/29 08:45:04;;;;;;;;;;;26.90;87.30;;;;;;4974540;28;19911;-79
2022/06/29 08:47:30;;;;;;;;;;;26.50;85.70;;;;;;4974301;28;19937;-79
2022/06/29 08:49:56;;;;;;;;;;;25.50;90.20;;;;;;4974343;28;20359;-80
2022/06/29 08:52:24;;;;;;;;;;;25.70;91.40;;;;;;4974840;28;19918;-81
2022/06/29 08:54:52;;;;;;;;;;;25.80;89.20;;;;;;4971229;28;19918;-80
2022/06/29 08:57:18;;;;;;;;;;;26.30;87.40;;;;;;4954795;28;19921;-80
2022/06/29 08:59:44;;;;;;;;;;;26.70;82.50;;;;;;4953687;28;19911;-80
2022/06/29 09:02:10;;;;;;;;;;;26.10;84.50;;;;;;4955285;28;19910;-79
2022/06/29 09:04:35;;;;;;;;;;;25.80;86.60;;;;;;4955255;28;19911;-81
2022/06/29 09:07:01;;;;;;;;;;;26.00;88.20;;;;;;4954785;28;19915;-80
2022/06/29 09:09:27;;;;;;;;;;;26.60;88.50;;;;;;4955218;28;19910;-80
2022/06/29 09:11:53;;;;;;;;;;;26.70;81.80;;;;;;4955314;29;19911;-79
2022/06/29 09:14:24;;;;;;;;;;;27.40;79.20;;;;;;4955394;29;19958;-80
2022/06/29 09:16:51;;;;;;;;;;;28.50;79.70;;;;;;4954845;28;19918;-81
2022/06/29 09:19:17;;;;;;;;;;;28.10;75.80;;;;;;4937696;29;19930;-80
2022/06/29 09:21:50;;;;;;;;;;;28.00;76.40;;;;;;4955102;29;19916;-80
2022/06/29 09:24:24;;;;;;;;;;;27.90;72.50;;;;;;4955030;28;19910;-80
2022/06/29 09:26:57;;;;;;;;;;;27.80;70.20;;;;;;4954665;28;19921;-80
2022/06/29 09:29:24;;;;;;;;;;;28.00;70.90;;;;;;4954980;29;19965;-80
2022/06/29 09:32:01;;;;;;;;;;;26.90;71.10;;;;;;4954842;29;20379;-79
2022/06/29 09:34:31;;;;;;;;;;;27.10;76.20;;;;;;4955011;28;19961;-79
2022/06/29 09:36:57;;;;;;;;;;;27.20;71.70;;;;;;4954606;28;19911;-80
2022/06/29 09:39:31;;;;;;;;;;;27.40;71.30;;;;;;4954857;29;19979;-81
2022/06/29 09:41:58;;;;;;;;;;;27.70;69.40;;;;;;4954978;29;19958;-80
2022/06/29 09:44:23;;;;;;;;;;;27.10;72.00;;;;;;4954634;29;19933;-79
2022/06/29 09:46:49;;;;;;;;;;;27.00;72.20;;;;;;4954450;28;20350;-80
2022/06/29 09:49:16;;;;;;;;;;;27.20;73.60;;;;;;4954835;29;19917;-80
2022/06/29 09:51:41;;;;;;;;;;;27.50;70.90;;;;;;4954362;29;19923;-80
2022/06/29 09:54:08;;;;;;;;;;;28.30;68.30;;;;;;4954926;29;19921;-80
2022/06/29 09:56:35;;;;;;;;;;;27.40;67.60;;;;;;4954101;28;19960;-80
2022/06/29 09:59:02;;;;;;;;;;;26.20;69.50;;;;;;4954876;29;19911;-79
2022/06/29 10:04:12;;;;;;;;;;;25.00;77.60;;;;;;4956750;28;20417;-81
2022/06/29 10:06:38;;;;;;;;;;;26.30;76.10;;;;;;4977130;28;19918;-81
2022/06/29 10:09:04;;;;;;;;;;;26.80;73.40;;;;;;4977168;28;19964;-81
2022/06/29 10:14:29;;;;;;;;;;;26.90;71.10;;;;;;4977155;28;19917;-81
2022/06/29 10:17:02;;;;;;;;;;;27.30;69.50;;;;;;4977101;28;19910;-79
2022/06/29 10:20:06;;;;;;;;;;;27.10;68.60;;;;;;4977285;28;19914;-80
2022/06/29 10:22:32;;;;;;;;;;;27.10;70.30;;;;;;4936675;29;19911;-80
2022/06/29 10:25:04;;;;;;;;;;;27.00;69.90;;;;;;4936776;29;19990;-80
2022/06/29 10:27:29;;;;;;;;;;;27.60;68.80;;;;;;4956677;28;20294;-80
2022/06/29 10:30:13;;;;;;;;;;;28.20;67.10;;;;;;4977254;28;19958;-80
2022/06/29 10:32:39;;;;;;;;;;;28.80;68.00;;;;;;4976922;28;19945;-80
2022/06/29 10:35:06;;;;;;;;;;;29.20;63.00;;;;;;4977035;28;19957;-80
2022/06/29 10:37:32;;;;;;;;;;;28.90;63.40;;;;;;4976727;28;19965;-80
2022/06/29 10:40:00;;;;;;;;;;;29.00;63.80;;;;;;4976944;28;19915;-80
2022/06/29 10:45:20;;;;;;;;;;;27.90;65.30;;;;;;4976576;28;19916;-81
2022/06/29 10:48:12;;;;;;;;;;;27.80;67.20;;;;;;4976515;28;19929;-81
2022/06/29 10:50:39;;;;;;;;;;;27.20;70.00;;;;;;4976771;28;19926;-81
2022/06/29 10:53:08;;;;;;;;;;;27.50;66.00;;;;;;4976799;28;20379;-81
2022/06/29 10:55:35;;;;;;;;;;;27.30;65.60;;;;;;4959273;28;20302;-81
2022/06/29 10:58:02;;;;;;;;;;;27.40;66.90;;;;;;4976240;28;19914;-80
2022/06/29 11:00:38;;;;;;;;;;;26.90;67.40;;;;;;4976644;28;19921;-80
2022/06/29 11:03:09;;;;;;;;;;;26.10;69.80;;;;;;4976644;28;19910;-81
2022/06/29 11:05:34;;;;;;;;;;;26.20;73.10;;;;;;4976801;28;19911;-81
2022/06/29 11:13:29;;;;;;;;;;;30.50;62.10;;;;;;4976230;28;19921;-81
2022/06/29 11:15:55;;;;;;;;;;;28.50;62.90;;;;;;4975783;28;20379;-81
2022/06/29 11:18:24;;;;;;;;;;;26.70;67.30;;;;;;4975469;28;19922;-80
2022/06/29 11:20:51;;;;;;;;;;;26.10;69.60;;;;;;4976004;28;19957;-80
2022/06/29 11:23:17;;;;;;;;;;;26.00;70.40;;;;;;4976186;28;20283;-80
2022/06/29 11:25:45;;;;;;;;;;;26.50;69.20;;;;;;4976201;28;20343;-80
2022/06/29 11:28:12;;;;;;;;;;;26.10;70.30;;;;;;4958265;28;19914;-79
2022/06/29 11:30:37;;;;;;;;;;;26.00;71.10;;;;;;4976013;28;20053;-80
2022/06/29 11:33:12;;;;;;;;;;;26.10;72.90;;;;;;4975778;28;19956;-80
2022/06/29 11:35:39;;;;;;;;;;;26.50;72.00;;;;;;4975839;28;19914;-78
2022/06/29 11:38:05;;;;;;;;;;;27.10;71.10;;;;;;4975678;28;20399;-80
2022/06/29 11:40:35;;;;;;;;;;;27.10;69.40;;;;;;4975838;28;19921;-81
2022/06/29 11:43:05;;;;;;;;;;;27.60;67.60;;;;;;4975928;28;20359;-80
2022/06/29 11:45:45;;;;;;;;;;;27.90;64.80;;;;;;4975715;28;19966;-80
2022/06/29 11:48:12;;;;;;;;;;;26.90;65.00;;;;;;4975376;28;20005;-80
2022/06/29 11:50:46;;;;;;;;;;;25.80;64.80;;;;;;4975421;28;19937;-80
2022/06/29 11:53:13;;;;;;;;;;;25.30;66.00;;;;;;4975693;28;19910;-80
2022/06/29 11:55:42;;;;;;;;;;;25.40;66.30;;;;;;4975433;28;19941;-80
2022/06/29 11:58:11;;;;;;;;;;;25.50;67.30;;;;;;4975269;28;19953;-79
2022/06/29 12:00:39;;;;;;;;;;;25.70;67.30;;;;;;4975425;28;19910;-80
2022/06/29 12:03:05;;;;;;;;;;;26.00;65.20;;;;;;4975577;28;19910;-79
2022/06/29 12:05:31;;;;;;;;;;;26.90;65.20;;;;;;4975361;28;20367;-80
2022/06/29 12:07:56;;;;;;;;;;;26.50;65.20;;;;;;4974883;28;19937;-81
2022/06/29 12:10:22;;;;;;;;;;;26.10;63.70;;;;;;4975326;28;20001;-80
2022/06/29 12:12:48;;;;;;;;;;;25.70;66.60;;;;;;4975225;28;19973;-79
2022/06/29 12:15:14;;;;;;;;;;;25.60;68.30;;;;;;4975237;28;20006;-81
2022/06/29 12:17:40;;;;;;;;;;;25.50;67.90;;;;;;4974909;28;19945;-80
2022/06/29 12:20:06;;;;;;;;;;;25.70;69.10;;;;;;4975011;28;19917;-80
2022/06/29 12:22:35;;;;;;;;;;;25.70;67.80;;;;;;4975116;28;19910;-80
2022/06/29 12:25:00;;;;;;;;;;;26.20;67.70;;;;;;4975078;28;19917;-80
2022/06/29 12:27:27;;;;;;;;;;;26.70;66.50;;;;;;4974623;28;19922;-81
2022/06/29 12:29:52;;;;;;;;;;;26.80;65.40;;;;;;4974958;28;20001;-79
2022/06/29 12:32:18;;;;;;;;;;;26.70;64.80;;;;;;4957416;28;20057;-80
2022/06/29 12:34:44;;;;;;;;;;;27.10;65.00;;;;;;4974870;28;19917;-80
2022/06/29 12:37:09;;;;;;;;;;;27.30;64.10;;;;;;4974720;28;19910;-80
2022/06/29 12:39:35;;;;;;;;;;;27.70;62.40;;;;;;4974874;28;19973;-80
2022/06/29 12:42:01;;;;;;;;;;;27.30;62.30;;;;;;4975044;28;19916;-79
2022/06/29 12:44:26;;;;;;;;;;;27.30;63.80;;;;;;4974638;28;19949;-81
2022/06/29 12:46:52;;;;;;;;;;;28.20;62.90;;;;;;4974616;28;19945;-79
2022/06/29 12:49:18;;;;;;;;;;;28.60;61.00;;;;;;4974315;28;19921;-81
2022/06/29 12:51:44;;;;;;;;;;;28.90;60.30;;;;;;4974560;28;19922;-81
2022/06/29 12:54:09;;;;;;;;;;;29.60;58.80;;;;;;4974587;28;19945;-81
2022/06/29 12:56:35;;;;;;;;;;;29.40;59.50;;;;;;4974546;28;20386;-79
2022/06/29 12:59:00;;;;;;;;;;;28.80;60.10;;;;;;4974051;28;19953;-80
2022/06/29 13:01:26;;;;;;;;;;;28.60;61.20;;;;;;4974634;28;19910;-81
2022/06/29 13:03:52;;;;;;;;;;;27.90;61.10;;;;;;4974541;28;19957;-80
2022/06/29 13:06:17;;;;;;;;;;;26.70;62.60;;;;;;4974408;28;19980;-80
2022/06/29 13:08:43;;;;;;;;;;;26.30;64.50;;;;;;4974004;28;19918;-80
2022/06/29 13:11:08;;;;;;;;;;;25.50;66.70;;;;;;4974382;28;20325;-80
2022/06/29 13:13:34;;;;;;;;;;;24.80;70.20;;;;;;4974329;28;19917;-79
2022/06/29 13:16:00;;;;;;;;;;;24.60;71.40;;;;;;4974535;28;20309;-79
2022/06/29 13:18:25;;;;;;;;;;;24.20;75.20;;;;;;4973959;28;20294;-81
2022/06/29 13:20:51;;;;;;;;;;;24.50;75.50;;;;;;4974092;28;19914;-79
2022/06/29 13:23:17;;;;;;;;;;;25.30;74.30;;;;;;4974322;28;19910;-80
2022/06/29 13:25:43;;;;;;;;;;;26.40;71.20;;;;;;4974321;28;19917;-79
2022/06/29 13:28:09;;;;;;;;;;;27.20;65.70;;;;;;4973875;28;19924;-81
2022/06/29 13:30:35;;;;;;;;;;;27.40;63.00;;;;;;4974453;28;20009;-79
2022/06/29 13:33:00;;;;;;;;;;;27.60;63.20;;;;;;4974152;28;19964;-79
2022/06/29 13:35:26;;;;;;;;;;;28.70;61.30;;;;;;4974123;28;19910;-80
2022/06/29 13:37:54;;;;;;;;;;;29.10;58.10;;;;;;4973917;28;19910;-79
2022/06/29 13:40:19;;;;;;;;;;;30.00;57.50;;;;;;4958534;28;19910;-80
2022/06/29 13:42:45;;;;;;;;;;;30.00;54.80;;;;;;4978058;28;19977;-79
2022/06/29 13:45:11;;;;;;;;;;;29.50;55.90;;;;;;4977714;28;19936;-80
2022/06/29 13:47:36;;;;;;;;;;;29.80;56.60;;;;;;4977463;28;19919;-80
2022/06/29 13:50:02;;;;;;;;;;;28.90;55.50;;;;;;4977698;28;19922;-79
2022/06/29 13:52:27;;;;;;;;;;;27.90;57.80;;;;;;4977818;28;20004;-80
2022/06/29 13:54:53;;;;;;;;;;;27.60;58.50;;;;;;4977865;28;19916;-79
2022/06/29 13:57:19;;;;;;;;;;;27.90;59.30;;;;;;4977723;28;20382;-80
2022/06/29 13:59:44;;;;;;;;;;;28.80;57.10;;;;;;4977190;28;19917;-80
2022/06/29 14:02:10;;;;;;;;;;;29.90;56.10;;;;;;4977620;28;20005;-79
2022/06/29 14:04:36;;;;;;;;;;;30.30;56.00;;;;;;4977625;28;19910;-81
2022/06/29 14:07:02;;;;;;;;;;;29.60;55.60;;;;;;4977474;28;19918;-80
2022/06/29 14:09:27;;;;;;;;;;;30.00;55.70;;;;;;4977074;28;19914;-81
2022/06/29 14:11:53;;;;;;;;;;;31.00;53.70;;;;;;4977591;28;19934;-80
2022/06/29 14:14:18;;;;;;;;;;;30.60;53.20;;;;;;4977417;28;20297;-80
2022/06/29 14:16:44;;;;;;;;;;;29.70;52.70;;;;;;4977444;28;19914;-79
2022/06/29 14:19:10;;;;;;;;;;;29.00;54.90;;;;;;4976762;28;19910;-80
2022/06/29 14:21:35;;;;;;;;;;;28.70;55.40;;;;;;4977377;28;19910;-81
2022/06/29 14:24:01;;;;;;;;;;;29.20;55.50;;;;;;4977310;28;20363;-80
2022/06/29 14:26:27;;;;;;;;;;;29.40;53.90;;;;;;4977159;28;19997;-82
2022/06/29 14:28:52;;;;;;;;;;;28.80;55.60;;;;;;4976861;28;19910;-80
2022/06/29 14:31:18;;;;;;;;;;;28.70;55.30;;;;;;4977033;28;19914;-80